sensor_id;sensor_type;location;lat;lon;timestamp;pressure;altitude;pressure_sealevel;temperature;humidity
23166;BME280;11751;42.700;24.170;2022-11-20T00:01:13;93386.47;;;11.54;nan
23166;BME280;11751;42.700;24.170;2022-11-20T00:03:39;93385.53;;;11.51;nan
23166;BME280;11751;42.700;24.170;2022-11-20T00:06:07;93393.72;;;11.57;nan
23166;BME280;11751;42.700;24.170;2022-11-20T00:08:33;93375.41;;;11.56;nan
23166;BME280;11751;42.700;24.170;2022-11-20T00:11:05;93387.94;;;11.55;nan
23166;BME280;11751;42.700;24.170;2022-11-20T00:13:32;93380.22;;;11.29;nan
23166;BME280;11751;42.700;24.170;2022-11-20T00:15:58;93382.94;;;11.19;nan
23166;BME280;11751;42.700;24.170;2022-11-20T00:18:24;93389.09;;;11.35;nan
23166;BME280;11751;42.700;24.170;2022-11-20T00:20:50;93380.00;;;11.44;nan
23166;BME280;11751;42.700;24.170;2022-11-20T00:23:15;93387.94;;;11.38;nan
23166;BME280;11751;42.700;24.170;2022-11-20T00:25:40;93381.16;;;11.41;nan
23166;BME280;11751;42.700;24.170;2022-11-20T00:28:06;93380.78;;;11.44;nan
23166;BME280;11751;42.700;24.170;2022-11-20T00:30:31;93393.88;;;11.42;nan
23166;BME280;11751;42.700;24.170;2022-11-20T00:32:57;93395.03;;;11.22;nan
23166;BME280;11751;42.700;24.170;2022-11-20T00:35:23;93393.72;;;11.40;nan
23166;BME280;11751;42.700;24.170;2022-11-20T00:37:48;93384.63;;;11.32;nan
23166;BME280;11751;42.700;24.170;2022-11-20T00:40:14;93397.16;;;11.31;nan
23166;BME280;11751;42.700;24.170;2022-11-20T00:42:39;93398.50;;;11.30;nan
23166;BME280;11751;42.700;24.170;2022-11-20T00:45:05;93390.34;;;11.24;nan
23166;BME280;11751;42.700;24.170;2022-11-20T00:47:30;93394.47;;;11.23;nan
23166;BME280;11751;42.700;24.170;2022-11-20T00:49:56;93396.88;;;11.27;nan
23166;BME280;11751;42.700;24.170;2022-11-20T00:52:21;93392.09;;;11.03;nan
23166;BME280;11751;42.700;24.170;2022-11-20T00:54:47;93380.88;;;11.03;nan
23166;BME280;11751;42.700;24.170;2022-11-20T00:57:12;93388.63;;;11.12;nan
23166;BME280;11751;42.700;24.170;2022-11-20T00:59:37;93396.88;;;11.10;nan
23166;BME280;11751;42.700;24.170;2022-11-20T01:02:03;93391.16;;;11.17;nan
23166;BME280;11751;42.700;24.170;2022-11-20T01:04:28;93372.63;;;11.05;nan
23166;BME280;11751;42.700;24.170;2022-11-20T01:06:54;93375.75;;;10.92;nan
23166;BME280;11751;42.700;24.170;2022-11-20T01:09:19;93374.53;;;11.03;nan
23166;BME280;11751;42.700;24.170;2022-11-20T01:11:45;93379.72;;;11.23;nan
23166;BME280;11751;42.700;24.170;2022-11-20T01:14:13;93365.38;;;11.19;nan
23166;BME280;11751;42.700;24.170;2022-11-20T01:16:44;93359.13;;;10.94;nan
23166;BME280;11751;42.700;24.170;2022-11-20T01:19:13;93365.53;;;11.21;nan
23166;BME280;11751;42.700;24.170;2022-11-20T01:21:42;93370.00;;;11.24;nan
23166;BME280;11751;42.700;24.170;2022-11-20T01:24:12;93377.56;;;11.14;nan
23166;BME280;11751;42.700;24.170;2022-11-20T01:26:39;93377.25;;;10.93;nan
23166;BME280;11751;42.700;24.170;2022-11-20T01:29:06;93374.84;;;11.06;nan
23166;BME280;11751;42.700;24.170;2022-11-20T01:31:34;93367.53;;;11.28;nan
23166;BME280;11751;42.700;24.170;2022-11-20T01:34:01;93369.94;;;11.41;nan
23166;BME280;11751;42.700;24.170;2022-11-20T01:36:29;93362.56;;;11.36;nan
23166;BME280;11751;42.700;24.170;2022-11-20T01:39:00;93374.25;;;11.42;nan
23166;BME280;11751;42.700;24.170;2022-11-20T01:41:28;93370.16;;;11.26;nan
23166;BME280;11751;42.700;24.170;2022-11-20T01:44:14;93369.16;;;11.31;nan
23166;BME280;11751;42.700;24.170;2022-11-20T01:46:48;93360.09;;;11.40;nan
23166;BME280;11751;42.700;24.170;2022-11-20T01:49:20;93362.88;;;11.40;nan
23166;BME280;11751;42.700;24.170;2022-11-20T01:51:59;93361.53;;;11.41;nan
23166;BME280;11751;42.700;24.170;2022-11-20T01:54:36;93362.13;;;11.39;nan
23166;BME280;11751;42.700;24.170;2022-11-20T01:57:04;93351.66;;;11.57;nan
23166;BME280;11751;42.700;24.170;2022-11-20T01:59:31;93337.53;;;11.64;nan
23166;BME280;11751;42.700;24.170;2022-11-20T02:01:56;93341.06;;;11.65;nan
23166;BME280;11751;42.700;24.170;2022-11-20T02:04:23;93339.66;;;11.73;nan
23166;BME280;11751;42.700;24.170;2022-11-20T02:06:52;93339.22;;;11.77;nan
23166;BME280;11751;42.700;24.170;2022-11-20T02:09:18;93347.81;;;11.79;nan
23166;BME280;11751;42.700;24.170;2022-11-20T02:11:44;93334.47;;;11.70;nan
23166;BME280;11751;42.700;24.170;2022-11-20T02:14:10;93328.09;;;11.69;nan
23166;BME280;11751;42.700;24.170;2022-11-20T02:16:46;93321.28;;;11.63;nan
23166;BME280;11751;42.700;24.170;2022-11-20T02:19:30;93332.19;;;11.59;nan
23166;BME280;11751;42.700;24.170;2022-11-20T02:22:07;93333.28;;;11.73;nan
23166;BME280;11751;42.700;24.170;2022-11-20T02:24:35;93334.78;;;11.74;nan
23166;BME280;11751;42.700;24.170;2022-11-20T02:27:08;93335.09;;;11.78;nan
23166;BME280;11751;42.700;24.170;2022-11-20T02:29:40;93336.94;;;11.66;nan
23166;BME280;11751;42.700;24.170;2022-11-20T02:32:18;93322.31;;;11.58;nan
23166;BME280;11751;42.700;24.170;2022-11-20T02:34:43;93320.72;;;11.64;nan
23166;BME280;11751;42.700;24.170;2022-11-20T02:37:09;93314.97;;;11.72;nan
23166;BME280;11751;42.700;24.170;2022-11-20T02:39:34;93315.31;;;11.76;nan
23166;BME280;11751;42.700;24.170;2022-11-20T02:42:00;93319.09;;;11.71;nan
23166;BME280;11751;42.700;24.170;2022-11-20T02:44:26;93323.09;;;11.51;nan
23166;BME280;11751;42.700;24.170;2022-11-20T02:46:51;93327.97;;;11.50;nan
23166;BME280;11751;42.700;24.170;2022-11-20T02:49:17;93322.31;;;11.41;nan
23166;BME280;11751;42.700;24.170;2022-11-20T02:51:42;93331.00;;;11.62;nan
23166;BME280;11751;42.700;24.170;2022-11-20T02:54:07;93326.53;;;11.76;nan
23166;BME280;11751;42.700;24.170;2022-11-20T02:56:33;93326.19;;;11.72;nan
23166;BME280;11751;42.700;24.170;2022-11-20T02:58:58;93325.66;;;11.83;nan
23166;BME280;11751;42.700;24.170;2022-11-20T03:01:24;93338.59;;;11.69;nan
23166;BME280;11751;42.700;24.170;2022-11-20T03:03:49;93332.84;;;11.76;nan
23166;BME280;11751;42.700;24.170;2022-11-20T03:06:16;93336.59;;;11.79;nan
23166;BME280;11751;42.700;24.170;2022-11-20T03:08:42;93339.53;;;11.81;nan
23166;BME280;11751;42.700;24.170;2022-11-20T03:11:08;93339.00;;;11.92;nan
23166;BME280;11751;42.700;24.170;2022-11-20T03:13:33;93340.63;;;11.94;nan
23166;BME280;11751;42.700;24.170;2022-11-20T03:16:08;93348.50;;;12.05;nan
23166;BME280;11751;42.700;24.170;2022-11-20T03:18:33;93355.72;;;11.99;nan
23166;BME280;11751;42.700;24.170;2022-11-20T03:20:59;93351.75;;;12.02;nan
23166;BME280;11751;42.700;24.170;2022-11-20T03:23:25;93345.13;;;11.81;nan
23166;BME280;11751;42.700;24.170;2022-11-20T03:25:50;93345.78;;;11.89;nan
23166;BME280;11751;42.700;24.170;2022-11-20T03:28:16;93346.41;;;11.96;nan
23166;BME280;11751;42.700;24.170;2022-11-20T03:30:41;93360.47;;;12.06;nan
23166;BME280;11751;42.700;24.170;2022-11-20T03:33:07;93366.50;;;12.02;nan
23166;BME280;11751;42.700;24.170;2022-11-20T03:35:32;93364.91;;;12.09;nan
23166;BME280;11751;42.700;24.170;2022-11-20T03:37:58;93374.75;;;12.00;nan
23166;BME280;11751;42.700;24.170;2022-11-20T03:40:23;93369.78;;;12.08;nan
23166;BME280;11751;42.700;24.170;2022-11-20T03:42:48;93374.22;;;12.11;nan
23166;BME280;11751;42.700;24.170;2022-11-20T03:45:17;93372.91;;;12.12;nan
23166;BME280;11751;42.700;24.170;2022-11-20T03:47:44;93370.09;;;12.12;nan
23166;BME280;11751;42.700;24.170;2022-11-20T03:50:12;93370.72;;;12.20;nan
23166;BME280;11751;42.700;24.170;2022-11-20T03:52:39;93365.97;;;12.13;nan
23166;BME280;11751;42.700;24.170;2022-11-20T03:55:05;93369.66;;;12.16;nan
23166;BME280;11751;42.700;24.170;2022-11-20T03:57:30;93367.44;;;12.14;nan
23166;BME280;11751;42.700;24.170;2022-11-20T03:59:56;93366.28;;;12.17;nan
23166;BME280;11751;42.700;24.170;2022-11-20T04:02:21;93371.38;;;12.02;nan
23166;BME280;11751;42.700;24.170;2022-11-20T04:04:47;93360.31;;;12.04;nan
23166;BME280;11751;42.700;24.170;2022-11-20T04:07:12;93365.34;;;12.05;nan
23166;BME280;11751;42.700;24.170;2022-11-20T04:09:38;93382.81;;;12.13;nan
23166;BME280;11751;42.700;24.170;2022-11-20T04:12:03;93381.09;;;12.27;nan
23166;BME280;11751;42.700;24.170;2022-11-20T04:14:29;93363.25;;;12.06;nan
23166;BME280;11751;42.700;24.170;2022-11-20T04:16:54;93358.47;;;12.25;nan
23166;BME280;11751;42.700;24.170;2022-11-20T04:19:20;93359.25;;;12.35;nan
23166;BME280;11751;42.700;24.170;2022-11-20T04:21:45;93382.88;;;12.32;nan
23166;BME280;11751;42.700;24.170;2022-11-20T04:24:11;93366.78;;;12.33;nan
23166;BME280;11751;42.700;24.170;2022-11-20T04:26:37;93367.19;;;12.20;nan
23166;BME280;11751;42.700;24.170;2022-11-20T04:29:03;93370.09;;;12.12;nan
23166;BME280;11751;42.700;24.170;2022-11-20T04:31:31;93368.66;;;12.21;nan
23166;BME280;11751;42.700;24.170;2022-11-20T04:34:04;93369.88;;;12.27;nan
23166;BME280;11751;42.700;24.170;2022-11-20T04:36:30;93362.44;;;12.22;nan
23166;BME280;11751;42.700;24.170;2022-11-20T04:38:58;93365.31;;;12.32;nan
23166;BME280;11751;42.700;24.170;2022-11-20T04:41:26;93374.34;;;12.49;nan
23166;BME280;11751;42.700;24.170;2022-11-20T04:43:54;93354.69;;;12.49;nan
23166;BME280;11751;42.700;24.170;2022-11-20T04:46:25;93358.28;;;12.59;nan
23166;BME280;11751;42.700;24.170;2022-11-20T04:48:52;93351.47;;;12.62;nan
23166;BME280;11751;42.700;24.170;2022-11-20T04:51:17;93352.69;;;12.69;nan
23166;BME280;11751;42.700;24.170;2022-11-20T04:53:42;93347.34;;;12.63;nan
23166;BME280;11751;42.700;24.170;2022-11-20T04:56:10;93347.63;;;12.58;nan
23166;BME280;11751;42.700;24.170;2022-11-20T04:58:36;93344.97;;;12.60;nan
23166;BME280;11751;42.700;24.170;2022-11-20T05:01:07;93352.09;;;12.61;nan
23166;BME280;11751;42.700;24.170;2022-11-20T05:03:33;93350.59;;;12.69;nan
23166;BME280;11751;42.700;24.170;2022-11-20T05:06:02;93348.97;;;12.57;nan
23166;BME280;11751;42.700;24.170;2022-11-20T05:08:28;93351.44;;;12.43;nan
23166;BME280;11751;42.700;24.170;2022-11-20T05:10:54;93343.56;;;12.32;nan
23166;BME280;11751;42.700;24.170;2022-11-20T05:13:24;93341.81;;;12.27;nan
23166;BME280;11751;42.700;24.170;2022-11-20T05:15:49;93356.28;;;12.33;nan
23166;BME280;11751;42.700;24.170;2022-11-20T05:18:14;93363.94;;;12.23;nan
23166;BME280;11751;42.700;24.170;2022-11-20T05:20:40;93365.47;;;12.43;nan
23166;BME280;11751;42.700;24.170;2022-11-20T05:23:05;93344.34;;;12.33;nan
23166;BME280;11751;42.700;24.170;2022-11-20T05:25:31;93358.09;;;12.38;nan
23166;BME280;11751;42.700;24.170;2022-11-20T05:27:56;93358.38;;;12.42;nan
23166;BME280;11751;42.700;24.170;2022-11-20T05:30:21;93369.00;;;12.44;nan
23166;BME280;11751;42.700;24.170;2022-11-20T05:32:47;93372.13;;;12.38;nan
23166;BME280;11751;42.700;24.170;2022-11-20T05:35:12;93363.28;;;12.51;nan
23166;BME280;11751;42.700;24.170;2022-11-20T05:37:38;93375.13;;;12.59;nan
23166;BME280;11751;42.700;24.170;2022-11-20T05:40:03;93367.13;;;12.56;nan
23166;BME280;11751;42.700;24.170;2022-11-20T05:42:32;93372.41;;;12.42;nan
23166;BME280;11751;42.700;24.170;2022-11-20T05:45:02;93372.88;;;12.48;nan
23166;BME280;11751;42.700;24.170;2022-11-20T05:47:32;93378.25;;;12.63;nan
23166;BME280;11751;42.700;24.170;2022-11-20T05:49:57;93369.97;;;12.65;nan
23166;BME280;11751;42.700;24.170;2022-11-20T05:52:23;93380.66;;;12.76;nan
23166;BME280;11751;42.700;24.170;2022-11-20T05:54:49;93386.41;;;12.78;nan
23166;BME280;11751;42.700;24.170;2022-11-20T05:57:14;93380.66;;;12.76;nan
23166;BME280;11751;42.700;24.170;2022-11-20T05:59:40;93383.63;;;12.87;nan
23166;BME280;11751;42.700;24.170;2022-11-20T06:02:05;93392.84;;;12.97;nan
23166;BME280;11751;42.700;24.170;2022-11-20T06:04:31;93404.94;;;12.90;nan
23166;BME280;11751;42.700;24.170;2022-11-20T06:06:56;93405.69;;;12.91;nan
23166;BME280;11751;42.700;24.170;2022-11-20T06:09:22;93408.81;;;12.95;nan
23166;BME280;11751;42.700;24.170;2022-11-20T06:11:47;93404.66;;;12.96;nan
23166;BME280;11751;42.700;24.170;2022-11-20T06:14:12;93409.41;;;13.03;nan
23166;BME280;11751;42.700;24.170;2022-11-20T06:16:38;93416.38;;;13.11;nan
23166;BME280;11751;42.700;24.170;2022-11-20T06:19:03;93405.56;;;13.08;nan
23166;BME280;11751;42.700;24.170;2022-11-20T06:21:29;93400.56;;;13.16;nan
23166;BME280;11751;42.700;24.170;2022-11-20T06:23:54;93412.38;;;13.24;nan
23166;BME280;11751;42.700;24.170;2022-11-20T06:26:22;93416.81;;;13.27;nan
23166;BME280;11751;42.700;24.170;2022-11-20T06:28:48;93421.84;;;13.38;nan
23166;BME280;11751;42.700;24.170;2022-11-20T06:31:16;93422.91;;;13.52;nan
23166;BME280;11751;42.700;24.170;2022-11-20T06:33:42;93416.97;;;13.66;nan
23166;BME280;11751;42.700;24.170;2022-11-20T06:36:10;93421.69;;;13.83;nan
23166;BME280;11751;42.700;24.170;2022-11-20T06:38:35;93414.13;;;13.95;nan
23166;BME280;11751;42.700;24.170;2022-11-20T06:41:01;93429.06;;;14.07;nan
23166;BME280;11751;42.700;24.170;2022-11-20T06:43:28;93431.28;;;14.08;nan
23166;BME280;11751;42.700;24.170;2022-11-20T06:45:58;93428.28;;;14.25;nan
23166;BME280;11751;42.700;24.170;2022-11-20T06:48:28;93411.97;;;14.33;nan
23166;BME280;11751;42.700;24.170;2022-11-20T06:50:53;93412.69;;;14.43;nan
23166;BME280;11751;42.700;24.170;2022-11-20T06:53:19;93404.50;;;14.47;nan
23166;BME280;11751;42.700;24.170;2022-11-20T06:55:46;93414.66;;;14.61;nan
23166;BME280;11751;42.700;24.170;2022-11-20T06:58:12;93423.97;;;14.73;nan
23166;BME280;11751;42.700;24.170;2022-11-20T07:00:38;93425.53;;;14.86;nan
23166;BME280;11751;42.700;24.170;2022-11-20T07:03:05;93415.59;;;14.85;nan
23166;BME280;11751;42.700;24.170;2022-11-20T07:05:30;93417.91;;;14.98;nan
23166;BME280;11751;42.700;24.170;2022-11-20T07:07:56;93426.38;;;15.19;nan
23166;BME280;11751;42.700;24.170;2022-11-20T07:10:22;93431.19;;;15.37;nan
23166;BME280;11751;42.700;24.170;2022-11-20T07:12:52;93420.22;;;15.52;nan
23166;BME280;11751;42.700;24.170;2022-11-20T07:15:19;93417.13;;;15.69;nan
23166;BME280;11751;42.700;24.170;2022-11-20T07:17:45;93427.19;;;15.72;nan
23166;BME280;11751;42.700;24.170;2022-11-20T07:20:11;93425.31;;;15.86;nan
23166;BME280;11751;42.700;24.170;2022-11-20T07:22:37;93428.41;;;15.90;nan
23166;BME280;11751;42.700;24.170;2022-11-20T07:25:03;93434.22;;;16.04;nan
23166;BME280;11751;42.700;24.170;2022-11-20T07:27:29;93429.81;;;16.12;nan
23166;BME280;11751;42.700;24.170;2022-11-20T07:29:55;93426.75;;;16.08;nan
23166;BME280;11751;42.700;24.170;2022-11-20T07:32:20;93425.91;;;16.17;nan
23166;BME280;11751;42.700;24.170;2022-11-20T07:34:46;93438.53;;;16.16;nan
23166;BME280;11751;42.700;24.170;2022-11-20T07:37:12;93414.75;;;16.19;nan
23166;BME280;11751;42.700;24.170;2022-11-20T07:39:38;93418.78;;;16.16;nan
23166;BME280;11751;42.700;24.170;2022-11-20T07:42:03;93420.63;;;16.23;nan
23166;BME280;11751;42.700;24.170;2022-11-20T07:44:29;93416.22;;;16.20;nan
23166;BME280;11751;42.700;24.170;2022-11-20T07:46:54;93416.31;;;16.11;nan
23166;BME280;11751;42.700;24.170;2022-11-20T07:49:19;93425.50;;;16.11;nan
23166;BME280;11751;42.700;24.170;2022-11-20T07:51:45;93438.91;;;16.11;nan
23166;BME280;11751;42.700;24.170;2022-11-20T07:54:10;93444.34;;;16.18;nan
23166;BME280;11751;42.700;24.170;2022-11-20T07:56:36;93438.41;;;16.14;nan
23166;BME280;11751;42.700;24.170;2022-11-20T07:59:01;93433.75;;;16.19;nan
23166;BME280;11751;42.700;24.170;2022-11-20T08:01:26;93437.25;;;15.96;nan
23166;BME280;11751;42.700;24.170;2022-11-20T08:03:52;93445.06;;;15.86;nan
23166;BME280;11751;42.700;24.170;2022-11-20T08:06:17;93445.94;;;15.89;nan
23166;BME280;11751;42.700;24.170;2022-11-20T08:08:44;93459.34;;;16.00;nan
23166;BME280;11751;42.700;24.170;2022-11-20T08:11:10;93457.00;;;15.96;nan
23166;BME280;11751;42.700;24.170;2022-11-20T08:13:54;93439.47;;;15.98;nan
23166;BME280;11751;42.700;24.170;2022-11-20T08:16:47;93447.06;;;15.95;nan
23166;BME280;11751;42.700;24.170;2022-11-20T08:19:14;93446.78;;;15.91;nan
23166;BME280;11751;42.700;24.170;2022-11-20T08:21:40;93445.09;;;15.98;nan
23166;BME280;11751;42.700;24.170;2022-11-20T08:24:06;93431.13;;;15.67;nan
23166;BME280;11751;42.700;24.170;2022-11-20T08:26:31;93426.78;;;15.87;nan
23166;BME280;11751;42.700;24.170;2022-11-20T08:28:57;93415.28;;;15.95;nan
23166;BME280;11751;42.700;24.170;2022-11-20T08:31:24;93417.16;;;16.13;nan
23166;BME280;11751;42.700;24.170;2022-11-20T08:33:50;93414.16;;;16.32;nan
23166;BME280;11751;42.700;24.170;2022-11-20T08:36:16;93412.03;;;16.21;nan
23166;BME280;11751;42.700;24.170;2022-11-20T08:38:47;93413.31;;;16.41;nan
23166;BME280;11751;42.700;24.170;2022-11-20T08:41:13;93419.84;;;16.43;nan
23166;BME280;11751;42.700;24.170;2022-11-20T08:44:01;93419.59;;;16.51;nan
23166;BME280;11751;42.700;24.170;2022-11-20T08:46:40;93420.84;;;16.48;nan
23166;BME280;11751;42.700;24.170;2022-11-20T08:49:08;93427.72;;;16.56;nan
23166;BME280;11751;42.700;24.170;2022-11-20T08:51:34;93422.34;;;16.72;nan
23166;BME280;11751;42.700;24.170;2022-11-20T08:54:00;93417.91;;;16.80;nan
23166;BME280;11751;42.700;24.170;2022-11-20T08:56:26;93400.94;;;16.92;nan
23166;BME280;11751;42.700;24.170;2022-11-20T08:58:51;93403.28;;;16.84;nan
23166;BME280;11751;42.700;24.170;2022-11-20T09:01:18;93400.22;;;17.03;nan
23166;BME280;11751;42.700;24.170;2022-11-20T09:03:50;93394.41;;;17.23;nan
23166;BME280;11751;42.700;24.170;2022-11-20T09:06:16;93393.31;;;17.40;nan
23166;BME280;11751;42.700;24.170;2022-11-20T09:08:42;93393.25;;;17.51;nan
23166;BME280;11751;42.700;24.170;2022-11-20T09:11:08;93379.81;;;17.63;nan
23166;BME280;11751;42.700;24.170;2022-11-20T09:13:34;93370.31;;;17.70;nan
23166;BME280;11751;42.700;24.170;2022-11-20T09:16:06;93377.09;;;17.65;nan
23166;BME280;11751;42.700;24.170;2022-11-20T09:18:33;93372.09;;;17.52;nan
23166;BME280;11751;42.700;24.170;2022-11-20T09:21:02;93382.28;;;17.57;nan
23166;BME280;11751;42.700;24.170;2022-11-20T09:23:31;93388.44;;;17.65;nan
23166;BME280;11751;42.700;24.170;2022-11-20T09:25:57;93366.00;;;17.69;nan
23166;BME280;11751;42.700;24.170;2022-11-20T09:28:25;93368.09;;;17.69;nan
23166;BME280;11751;42.700;24.170;2022-11-20T09:30:51;93377.19;;;17.67;nan
23166;BME280;11751;42.700;24.170;2022-11-20T09:33:17;93374.22;;;17.77;nan
23166;BME280;11751;42.700;24.170;2022-11-20T09:35:43;93379.81;;;17.63;nan
23166;BME280;11751;42.700;24.170;2022-11-20T09:38:09;93380.16;;;17.69;nan
23166;BME280;11751;42.700;24.170;2022-11-20T09:40:39;93367.53;;;17.84;nan
23166;BME280;11751;42.700;24.170;2022-11-20T09:54:18;93362.09;;;18.24;nan
23166;BME280;11751;42.700;24.170;2022-11-20T09:56:48;93359.41;;;18.39;nan
23166;BME280;11751;42.700;24.170;2022-11-20T09:59:35;93366.44;;;18.52;nan
23166;BME280;11751;42.700;24.170;2022-11-20T10:02:15;93354.16;;;18.47;nan
23166;BME280;11751;42.700;24.170;2022-11-20T10:04:46;93344.47;;;18.39;nan
23166;BME280;11751;42.700;24.170;2022-11-20T10:09:53;93342.72;;;18.59;nan
23166;BME280;11751;42.700;24.170;2022-11-20T10:15:12;93349.88;;;18.60;nan
23166;BME280;11751;42.700;24.170;2022-11-20T10:29:07;93346.22;;;18.84;nan
23166;BME280;11751;42.700;24.170;2022-11-20T10:31:38;93329.50;;;18.77;nan
23166;BME280;11751;42.700;24.170;2022-11-20T10:34:38;93334.88;;;18.71;nan
23166;BME280;11751;42.700;24.170;2022-11-20T10:37:18;93332.25;;;18.75;nan
23166;BME280;11751;42.700;24.170;2022-11-20T10:39:57;93333.22;;;18.79;nan
23166;BME280;11751;42.700;24.170;2022-11-20T10:47:50;93333.00;;;19.02;nan
23166;BME280;11751;42.700;24.170;2022-11-20T10:50:19;93322.81;;;19.10;nan
23166;BME280;11751;42.700;24.170;2022-11-20T11:00:22;93327.81;;;19.52;nan
23166;BME280;11751;42.700;24.170;2022-11-20T11:02:54;93327.41;;;19.44;nan
23166;BME280;11751;42.700;24.170;2022-11-20T11:08:03;93299.56;;;19.70;nan
23166;BME280;11751;42.700;24.170;2022-11-20T11:11:00;93309.81;;;19.90;nan
23166;BME280;11751;42.700;24.170;2022-11-20T11:13:29;93310.16;;;19.82;nan
23166;BME280;11751;42.700;24.170;2022-11-20T11:15:56;93299.13;;;19.75;nan
23166;BME280;11751;42.700;24.170;2022-11-20T11:18:32;93291.47;;;19.64;nan
23166;BME280;11751;42.700;24.170;2022-11-20T11:21:03;93295.78;;;19.65;nan
23166;BME280;11751;42.700;24.170;2022-11-20T11:23:38;93291.19;;;19.58;nan
23166;BME280;11751;42.700;24.170;2022-11-20T11:26:06;93290.41;;;19.42;nan
23166;BME280;11751;42.700;24.170;2022-11-20T11:28:33;93288.94;;;19.41;nan
23166;BME280;11751;42.700;24.170;2022-11-20T11:30:58;93277.75;;;19.45;nan
23166;BME280;11751;42.700;24.170;2022-11-20T11:33:26;93283.66;;;19.49;nan
23166;BME280;11751;42.700;24.170;2022-11-20T11:35:54;93292.66;;;19.59;nan
23166;BME280;11751;42.700;24.170;2022-11-20T11:41:00;93272.75;;;19.30;nan
23166;BME280;11751;42.700;24.170;2022-11-20T11:43:30;93276.31;;;19.31;nan
23166;BME280;11751;42.700;24.170;2022-11-20T11:54:55;93272.38;;;19.22;nan
23166;BME280;11751;42.700;24.170;2022-11-20T12:00:14;93267.66;;;19.13;nan
23166;BME280;11751;42.700;24.170;2022-11-20T12:05:26;93262.28;;;18.92;nan
23166;BME280;11751;42.700;24.170;2022-11-20T12:10:23;93247.03;;;18.99;nan
23166;BME280;11751;42.700;24.170;2022-11-20T12:13:01;93260.03;;;19.04;nan
23166;BME280;11751;42.700;24.170;2022-11-20T12:15:33;93272.78;;;19.03;nan
23166;BME280;11751;42.700;24.170;2022-11-20T12:17:59;93270.03;;;19.05;nan
23166;BME280;11751;42.700;24.170;2022-11-20T12:20:33;93273.19;;;18.85;nan
23166;BME280;11751;42.700;24.170;2022-11-20T12:23:10;93270.06;;;18.79;nan
23166;BME280;11751;42.700;24.170;2022-11-20T12:25:43;93265.63;;;18.76;nan
23166;BME280;11751;42.700;24.170;2022-11-20T12:28:28;93268.28;;;18.72;nan
23166;BME280;11751;42.700;24.170;2022-11-20T12:37:08;93271.31;;;18.76;nan
23166;BME280;11751;42.700;24.170;2022-11-20T12:39:40;93283.06;;;18.57;nan
23166;BME280;11751;42.700;24.170;2022-11-20T12:42:15;93273.41;;;18.48;nan
23166;BME280;11751;42.700;24.170;2022-11-20T12:53:25;93330.66;;;16.75;nan
23166;BME280;11751;42.700;24.170;2022-11-20T13:04:55;93334.66;;;14.76;nan
23166;BME280;11751;42.700;24.170;2022-11-20T13:06:51;93355.13;;;14.76;nan
23166;BME280;11751;42.700;24.170;2022-11-20T13:09:19;93381.78;;;14.85;nan
23166;BME280;11751;42.700;24.170;2022-11-20T13:12:11;93407.03;;;14.83;nan
23166;BME280;11751;42.700;24.170;2022-11-20T13:17:36;93433.91;;;14.74;nan
23166;BME280;11751;42.700;24.170;2022-11-20T13:20:06;93440.88;;;14.73;nan
23166;BME280;11751;42.700;24.170;2022-11-20T13:22:47;93443.94;;;14.87;nan
23166;BME280;11751;42.700;24.170;2022-11-20T13:27:48;93434.38;;;14.71;nan
23166;BME280;11751;42.700;24.170;2022-11-20T13:30:20;93424.84;;;14.76;nan
23166;BME280;11751;42.700;24.170;2022-11-20T13:32:57;93431.41;;;14.69;nan
23166;BME280;11751;42.700;24.170;2022-11-20T13:35:31;93435.72;;;14.60;nan
23166;BME280;11751;42.700;24.170;2022-11-20T13:38:11;93425.09;;;14.50;nan
23166;BME280;11751;42.700;24.170;2022-11-20T13:40:50;93427.50;;;14.44;nan
23166;BME280;11751;42.700;24.170;2022-11-20T13:46:01;93426.31;;;14.37;nan
23166;BME280;11751;42.700;24.170;2022-11-20T13:48:31;93424.75;;;14.25;nan
23166;BME280;11751;42.700;24.170;2022-11-20T13:51:34;93391.06;;;14.36;nan
23166;BME280;11751;42.700;24.170;2022-11-20T13:56:51;93380.09;;;13.72;nan
23166;BME280;11751;42.700;24.170;2022-11-20T14:01:55;93377.81;;;13.99;nan
23166;BME280;11751;42.700;24.170;2022-11-20T14:04:27;93370.34;;;13.64;nan
23166;BME280;11751;42.700;24.170;2022-11-20T14:06:54;93367.69;;;13.66;nan
23166;BME280;11751;42.700;24.170;2022-11-20T14:11:52;93360.59;;;13.46;nan
23166;BME280;11751;42.700;24.170;2022-11-20T14:14:20;93355.25;;;13.50;nan
23166;BME280;11751;42.700;24.170;2022-11-20T14:16:46;93352.28;;;13.48;nan
23166;BME280;11751;42.700;24.170;2022-11-20T14:19:25;93353.19;;;13.41;nan
23166;BME280;11751;42.700;24.170;2022-11-20T14:21:54;93349.47;;;13.48;nan
23166;BME280;11751;42.700;24.170;2022-11-20T14:24:24;93336.91;;;13.49;nan
23166;BME280;11751;42.700;24.170;2022-11-20T14:26:51;93324.47;;;13.52;nan
23166;BME280;11751;42.700;24.170;2022-11-20T14:29:23;93316.03;;;13.52;nan
23166;BME280;11751;42.700;24.170;2022-11-20T14:31:53;93303.44;;;13.53;nan
23166;BME280;11751;42.700;24.170;2022-11-20T14:34:27;93298.09;;;13.57;nan
23166;BME280;11751;42.700;24.170;2022-11-20T14:36:57;93301.63;;;13.66;nan
23166;BME280;11751;42.700;24.170;2022-11-20T14:39:36;93302.53;;;13.60;nan
23166;BME280;11751;42.700;24.170;2022-11-20T14:42:10;93292.38;;;13.36;nan
23166;BME280;11751;42.700;24.170;2022-11-20T14:44:40;93302.38;;;13.58;nan
23166;BME280;11751;42.700;24.170;2022-11-20T14:47:08;93293.09;;;13.27;nan
23166;BME280;11751;42.700;24.170;2022-11-20T14:49:36;93297.41;;;13.37;nan
23166;BME280;11751;42.700;24.170;2022-11-20T14:52:15;93285.84;;;13.43;nan
23166;BME280;11751;42.700;24.170;2022-11-20T14:54:48;93281.56;;;13.42;nan
23166;BME280;11751;42.700;24.170;2022-11-20T14:57:30;93275.94;;;13.42;nan
23166;BME280;11751;42.700;24.170;2022-11-20T15:02:42;93269.88;;;13.36;nan